Time;durP1;ratioP1;P1;durP2;ratioP2;P2;SDS_P1;SDS_P2;PMS_P1;PMS_P2;Temp;Humidity;BMP_temperature;BMP_pressure;BME280_temperature;BME280_humidity;BME280_pressure;Samples;Min_cycle;Max_cycle;Signal;HPM_P1;HPM_P2
2021/04/14 00:00:00;;;;;;;6.30;2.57;;;3.30;80.80;;;;;;5061134;28;20059;-79
2021/04/14 00:02:26;;;;;;;5.53;3.00;;;3.40;81.30;;;;;;5049865;28;20091;-79
2021/04/14 00:04:57;;;;;;;5.13;2.53;;;3.40;81.60;;;;;;5046273;28;20032;-80
2021/04/14 00:07:23;;;;;;;4.07;2.47;;;3.40;81.60;;;;;;5080191;28;20059;-80
2021/04/14 00:09:50;;;;;;;7.97;3.60;;;3.50;81.80;;;;;;5029810;28;20056;-80
2021/04/14 00:12:17;;;;;;;6.70;3.30;;;3.50;82.50;;;;;;5048774;28;20047;-81
2021/04/14 00:14:45;;;;;;;4.93;2.73;;;3.60;82.00;;;;;;5058621;28;20051;-78
2021/04/14 00:17:11;;;;;;;7.30;2.60;;;3.60;81.90;;;;;;5060191;28;21168;-81
2021/04/14 00:19:41;;;;;;;6.43;3.43;;;3.70;81.90;;;;;;5028952;28;20068;-81
2021/04/14 00:22:07;;;;;;;5.07;2.87;;;3.70;81.90;;;;;;5015823;28;20048;-81
2021/04/14 00:24:36;;;;;;;6.87;3.30;;;3.70;82.40;;;;;;5046780;28;20048;-80
2021/04/14 00:27:03;;;;;;;7.43;2.97;;;3.80;81.80;;;;;;5076976;28;20078;-80
2021/04/14 00:29:30;;;;;;;5.83;2.23;;;3.80;81.90;;;;;;5067942;28;20037;-79
2021/04/14 00:31:56;;;;;;;5.80;2.10;;;3.90;81.80;;;;;;5047456;28;20470;-79
2021/04/14 00:34:23;;;;;;;3.63;2.17;;;3.90;81.70;;;;;;5051252;28;20386;-79
2021/04/14 00:36:49;;;;;;;5.73;2.33;;;3.90;81.70;;;;;;5084229;28;20754;-79
2021/04/14 00:39:22;;;;;;;5.63;2.83;;;4.00;81.70;;;;;;5067106;28;20502;-79
2021/04/14 00:41:50;;;;;;;4.35;1.67;;;4.00;81.80;;;;;;5067197;28;20044;-79
2021/04/14 00:44:18;;;;;;;6.37;2.63;;;4.00;81.60;;;;;;5052185;28;20035;-79
2021/04/14 00:46:45;;;;;;;6.33;2.33;;;4.00;81.70;;;;;;5046992;28;20047;-79
2021/04/14 00:49:13;;;;;;;5.53;2.60;;;4.10;81.80;;;;;;5036362;28;20036;-79
2021/04/14 00:51:41;;;;;;;2.87;1.80;;;4.10;82.40;;;;;;5054989;28;20032;-79
2021/04/14 00:54:10;;;;;;;4.87;1.90;;;4.10;81.80;;;;;;5062773;28;20040;-79
2021/04/14 00:56:37;;;;;;;4.67;2.37;;;4.20;81.80;;;;;;5072268;28;20080;-79
2021/04/14 00:59:03;;;;;;;4.37;2.10;;;4.20;82.40;;;;;;5068011;28;20032;-79
2021/04/14 01:01:30;;;;;;;6.20;2.03;;;4.20;81.90;;;;;;5037053;28;20043;-78
2021/04/14 01:03:57;;;;;;;7.43;3.00;;;4.20;81.90;;;;;;5066564;28;20048;-79
2021/04/14 01:06:27;;;;;;;5.60;2.47;;;4.20;82.30;;;;;;5042772;28;20051;-79
2021/04/14 01:08:54;;;;;;;4.80;2.43;;;4.20;82.40;;;;;;5084630;28;20044;-78
2021/04/14 01:11:24;;;;;;;6.40;3.13;;;4.20;82.40;;;;;;5063588;28;20059;-78
2021/04/14 01:13:50;;;;;;;6.80;2.90;;;4.30;82.50;;;;;;5064411;28;20048;-78
2021/04/14 01:16:17;;;;;;;6.03;2.43;;;4.20;82.60;;;;;;5079840;28;20047;-79
2021/04/14 01:18:44;;;;;;;4.63;2.40;;;4.20;82.70;;;;;;5017139;28;20798;-79
2021/04/14 01:21:31;;;;;;;4.93;2.43;;;4.20;82.70;;;;;;5065537;28;20052;-79
2021/04/14 01:23:57;;;;;;;6.60;2.40;;;4.20;82.80;;;;;;5063179;28;20036;-79
2021/04/14 01:26:24;;;;;;;10.20;2.80;;;4.20;82.80;;;;;;5082385;28;20521;-79
2021/04/14 01:28:51;;;;;;;5.63;2.33;;;4.20;83.00;;;;;;5057993;28;20032;-79
2021/04/14 01:31:32;;;;;;;4.83;2.60;;;4.20;83.20;;;;;;5062021;28;20043;-80
2021/04/14 01:34:17;;;;;;;4.90;2.07;;;4.20;83.30;;;;;;5049433;28;20398;-79
2021/04/14 01:36:45;;;;;;;3.93;2.13;;;4.20;83.70;;;;;;5078489;28;20059;-79
2021/04/14 01:39:13;;;;;;;6.80;2.70;;;4.10;83.60;;;;;;5065022;28;20044;-79
2021/04/14 01:41:41;;;;;;;3.83;1.80;;;4.10;83.60;;;;;;5060889;28;20044;-79
2021/04/14 01:44:11;;;;;;;4.50;2.00;;;4.10;83.60;;;;;;5064488;28;20059;-79
2021/04/14 01:46:39;;;;;;;6.70;2.70;;;4.10;83.70;;;;;;5077799;28;20048;-79
2021/04/14 01:49:06;;;;;;;3.83;2.30;;;4.10;83.90;;;;;;5047826;28;20040;-79
2021/04/14 01:51:35;;;;;;;4.47;2.57;;;4.10;84.00;;;;;;5065598;28;20048;-78
2021/04/14 01:54:03;;;;;;;6.43;2.20;;;4.00;84.10;;;;;;5065015;28;20048;-79
2021/04/14 01:56:30;;;;;;;5.27;2.27;;;4.00;84.30;;;;;;5028039;28;20044;-79
2021/04/14 01:59:04;;;;;;;7.33;2.63;;;4.00;84.40;;;;;;5046422;28;20051;-79
2021/04/14 02:01:32;;;;;;;5.03;1.97;;;4.00;84.40;;;;;;5078889;28;20040;-79
2021/04/14 02:03:59;;;;;;;8.43;2.57;;;3.90;84.40;;;;;;5082656;28;20517;-79
2021/04/14 02:06:26;;;;;;;2.63;1.47;;;3.90;84.60;;;;;;5045797;28;20036;-79
2021/04/14 02:08:53;;;;;;;5.60;2.47;;;3.90;84.70;;;;;;5065654;28;20511;-79
2021/04/14 02:11:19;;;;;;;6.07;2.60;;;3.90;84.70;;;;;;5060728;28;20052;-78
2021/04/14 02:13:46;;;;;;;5.70;2.87;;;3.90;84.80;;;;;;5046338;28;20052;-79
2021/04/14 02:16:20;;;;;;;5.23;2.90;;;3.90;85.00;;;;;;5026492;28;20502;-79
2021/04/14 02:18:48;;;;;;;5.50;3.00;;;3.90;85.30;;;;;;5063528;28;20434;-79
2021/04/14 02:21:16;;;;;;;5.17;2.43;;;4.00;85.40;;;;;;5081949;28;20519;-79
2021/04/14 02:23:44;;;;;;;6.40;2.43;;;4.00;85.30;;;;;;5017276;28;20033;-79
2021/04/14 02:26:17;;;;;;;4.73;2.77;;;4.00;85.30;;;;;;5063967;28;20035;-78
2021/04/14 02:28:45;;;;;;;4.93;2.20;;;4.00;85.30;;;;;;5081728;28;20047;-79
2021/04/14 02:31:15;;;;;;;6.03;2.53;;;3.90;85.30;;;;;;5060928;28;20890;-79
2021/04/14 02:33:41;;;;;;;4.40;2.40;;;4.00;85.50;;;;;;5063888;28;20033;-79
2021/04/14 02:36:10;;;;;;;5.80;2.77;;;4.00;85.50;;;;;;5038668;28;20395;-79
2021/04/14 02:38:37;;;;;;;6.90;3.10;;;4.00;85.60;;;;;;5046880;28;20028;-79
2021/04/14 02:41:05;;;;;;;6.00;2.77;;;4.00;85.70;;;;;;5059815;28;20048;-78
2021/04/14 02:43:31;;;;;;;7.70;3.03;;;4.00;85.70;;;;;;5062865;28;20040;-78
2021/04/14 02:45:58;;;;;;;7.70;2.33;;;4.00;85.60;;;;;;5062963;28;20036;-79
2021/04/14 02:48:36;;;;;;;7.40;2.90;;;4.00;85.80;;;;;;5051250;28;20110;-79
2021/04/14 02:51:04;;;;;;;5.33;2.40;;;4.00;85.80;;;;;;5030957;28;20029;-79
2021/04/14 02:53:34;;;;;;;5.90;2.63;;;4.00;85.80;;;;;;5065223;28;20040;-78
2021/04/14 02:56:01;;;;;;;8.23;2.97;;;4.00;85.90;;;;;;5056385;28;20132;-79
2021/04/14 02:58:27;;;;;;;6.10;3.17;;;4.00;86.10;;;;;;5049339;28;20479;-79
2021/04/14 03:00:54;;;;;;;6.53;3.20;;;4.00;86.20;;;;;;5023308;28;20099;-78
2021/04/14 03:03:22;;;;;;;6.67;2.77;;;4.00;86.20;;;;;;5045650;28;20124;-79
2021/04/14 03:05:49;;;;;;;7.50;3.03;;;3.90;86.40;;;;;;5043436;28;20051;-79
2021/04/14 03:08:15;;;;;;;6.80;2.70;;;3.90;86.60;;;;;;5059828;28;20051;-79
2021/04/14 03:10:42;;;;;;;7.67;3.03;;;3.80;86.70;;;;;;5062823;28;20028;-79
2021/04/14 03:13:08;;;;;;;5.27;2.93;;;3.70;86.80;;;;;;5015779;28;20074;-79
2021/04/14 03:15:39;;;;;;;6.73;2.70;;;3.70;87.00;;;;;;5077919;28;20048;-79
2021/04/14 03:18:17;;;;;;;3.87;2.03;;;3.60;87.20;;;;;;5063334;28;20039;-78
2021/04/14 03:20:45;;;;;;;6.67;2.87;;;3.50;87.30;;;;;;5042781;28;20407;-78
2021/04/14 03:23:15;;;;;;;7.93;2.50;;;3.40;87.30;;;;;;5075655;28;20055;-78
2021/04/14 03:25:41;;;;;;;7.53;3.07;;;3.30;87.60;;;;;;5044318;28;20043;-78
2021/04/14 03:28:08;;;;;;;8.10;2.80;;;3.30;87.70;;;;;;5059030;28;20131;-78
2021/04/14 03:30:37;;;;;;;5.27;2.57;;;3.20;87.80;;;;;;5066979;28;20040;-79
2021/04/14 03:33:04;;;;;;;6.97;3.57;;;3.10;87.90;;;;;;5058637;28;20052;-78
2021/04/14 03:35:34;;;;;;;6.50;2.80;;;3.00;87.90;;;;;;5063119;28;20048;-78
2021/04/14 03:38:01;;;;;;;5.77;3.50;;;3.00;88.00;;;;;;5063453;28;20052;-79
2021/04/14 03:40:29;;;;;;;5.57;3.87;;;3.00;88.10;;;;;;5047187;28;20040;-79
2021/04/14 03:42:57;;;;;;;8.10;4.60;;;3.00;88.30;;;;;;5077175;28;20040;-78
2021/04/14 03:45:35;;;;;;;7.47;4.23;;;2.90;88.60;;;;;;5062284;28;20040;-79
2021/04/14 03:48:02;;;;;;;8.10;4.07;;;2.90;88.80;;;;;;5079557;28;20758;-78
2021/04/14 03:50:29;;;;;;;8.03;3.90;;;2.90;88.70;;;;;;5062398;28;20052;-78
2021/04/14 03:53:08;;;;;;;8.90;3.43;;;3.00;88.70;;;;;;5062417;28;20040;-78
2021/04/14 03:55:45;;;;;;;6.87;3.60;;;3.00;88.60;;;;;;5065614;28;20052;-78
2021/04/14 03:58:12;;;;;;;6.33;3.40;;;3.00;88.30;;;;;;5074999;28;20043;-79
2021/04/14 04:00:38;;;;;;;8.50;4.03;;;3.10;88.30;;;;;;5046108;28;20490;-78
2021/04/14 04:03:21;;;;;;;7.67;4.17;;;3.00;88.20;;;;;;5039253;28;20389;-78
2021/04/14 04:05:49;;;;;;;6.40;4.40;;;3.10;88.20;;;;;;5083569;28;20547;-78
2021/04/14 04:08:16;;;;;;;14.67;5.43;;;3.10;88.30;;;;;;5081762;28;20044;-79
2021/04/14 04:10:43;;;;;;;15.33;8.30;;;3.10;88.50;;;;;;5066356;28;20051;-78
2021/04/14 04:13:12;;;;;;;17.03;8.40;;;3.00;90.20;;;;;;5052800;28;20040;-78
2021/04/14 04:15:39;;;;;;;14.67;6.47;;;3.00;90.70;;;;;;5069130;28;20063;-81
2021/04/14 04:18:07;;;;;;;11.13;6.03;;;3.10;90.60;;;;;;5048237;28;20139;-81
2021/04/14 04:20:34;;;;;;;13.10;6.97;;;3.10;90.50;;;;;;5057386;28;20516;-80
2021/04/14 04:23:01;;;;;;;34.97;19.63;;;3.20;90.70;;;;;;5076492;28;20052;-80
2021/04/14 04:25:29;;;;;;;19.00;12.20;;;3.30;90.90;;;;;;5043182;28;20032;-79
2021/04/14 04:27:56;;;;;;;20.63;11.60;;;3.40;90.80;;;;;;5067022;28;20099;-80
2021/04/14 04:30:23;;;;;;;12.43;7.17;;;3.40;90.80;;;;;;5042290;28;20033;-80
2021/04/14 04:33:05;;;;;;;15.33;7.77;;;3.50;90.60;;;;;;5079408;28;20159;-79
2021/04/14 04:35:35;;;;;;;10.20;5.53;;;3.50;90.60;;;;;;5064550;28;20040;-79
2021/04/14 04:38:02;;;;;;;14.60;8.47;;;3.40;90.50;;;;;;5081657;28;20048;-79
2021/04/14 04:40:30;;;;;;;49.73;30.57;;;3.40;90.60;;;;;;5069048;28;20076;-79
2021/04/14 04:42:57;;;;;;;39.23;25.03;;;3.40;90.50;;;;;;5032801;28;20055;-79
2021/04/14 04:45:27;;;;;;;16.40;11.07;;;3.30;90.50;;;;;;5064049;28;20043;-78
2021/04/14 04:47:54;;;;;;;14.17;7.93;;;3.30;90.50;;;;;;5082128;28;20383;-77
2021/04/14 04:50:26;;;;;;;10.80;6.30;;;3.20;90.40;;;;;;5030835;28;20028;-77
2021/04/14 04:52:59;;;;;;;8.75;6.18;;;3.20;90.50;;;;;;5082080;28;20064;-78
2021/04/14 04:55:26;;;;;;;;;;;3.20;90.50;;;;;;5050108;28;20501;-77
2021/04/14 04:57:53;;;;;;;9.50;4.67;;;3.20;90.50;;;;;;5062472;28;19916;-78
2021/04/14 05:00:20;;;;;;;7.13;4.53;;;3.10;90.60;;;;;;5067310;28;20052;-80
2021/04/14 05:02:47;;;;;;;6.60;4.00;;;3.20;90.30;;;;;;5035834;28;20051;-78
2021/04/14 05:05:17;;;;;;;9.37;5.63;;;3.20;90.30;;;;;;5065058;28;20450;-78
2021/04/14 05:07:43;;;;;;;15.57;6.80;;;3.30;90.20;;;;;;5064683;28;20031;-77
2021/04/14 05:10:12;;;;;;;11.37;5.87;;;3.30;90.20;;;;;;5081667;28;20045;-78
2021/04/14 05:12:39;;;;;;;8.60;5.17;;;3.40;90.10;;;;;;5035168;28;20059;-77
2021/04/14 05:15:08;;;;;;;11.37;6.30;;;3.50;90.10;;;;;;5024033;28;20600;-78
2021/04/14 05:17:35;;;;;;;8.07;5.27;;;3.50;90.00;;;;;;5010372;28;20041;-81
2021/04/14 05:20:05;;;;;;;7.17;4.97;;;3.60;89.90;;;;;;5020052;28;20036;-81
2021/04/14 05:22:32;;;;;;;8.93;5.40;;;3.60;89.80;;;;;;4994413;28;20041;-80
2021/04/14 05:24:59;;;;;;;8.77;5.33;;;3.70;89.80;;;;;;5005286;28;20509;-80
2021/04/14 05:27:26;;;;;;;10.90;5.30;;;3.80;89.80;;;;;;5024210;28;20032;-80
2021/04/14 05:29:55;;;;;;;9.07;5.30;;;3.80;89.60;;;;;;5014385;28;20038;-78
2021/04/14 05:32:23;;;;;;;5.97;3.83;;;3.80;89.60;;;;;;5015634;28;20065;-78
2021/04/14 05:34:50;;;;;;;5.87;3.90;;;3.70;89.50;;;;;;5006308;28;20040;-79
2021/04/14 05:37:31;;;;;;;12.20;5.33;;;3.70;89.50;;;;;;5015400;28;20041;-78
2021/04/14 05:39:57;;;;;;;10.80;5.40;;;3.70;89.60;;;;;;4994222;28;20483;-79
2021/04/14 05:42:24;;;;;;;6.87;4.93;;;3.80;89.60;;;;;;5030177;28;20045;-79
2021/04/14 05:44:51;;;;;;;7.20;4.90;;;3.90;89.60;;;;;;5006592;28;20395;-79
2021/04/14 05:47:19;;;;;;;8.27;4.93;;;4.00;89.50;;;;;;5022907;28;20045;-79
2021/04/14 05:49:46;;;;;;;8.73;5.50;;;4.00;89.40;;;;;;5028253;28;20041;-79
2021/04/14 05:52:12;;;;;;;10.87;6.57;;;4.20;89.90;;;;;;4980535;28;20048;-80
2021/04/14 05:54:45;;;;;;;8.13;4.77;;;4.30;89.30;;;;;;5028968;28;20059;-80
2021/04/14 05:57:12;;;;;;;10.03;5.93;;;4.40;89.00;;;;;;4991543;28;20052;-80
2021/04/14 05:59:43;;;;;;;10.40;5.90;;;4.60;88.80;;;;;;5008218;28;20132;-80
2021/04/14 06:02:09;;;;;;;10.43;5.97;;;4.70;88.50;;;;;;5011026;28;20044;-79
2021/04/14 06:04:36;;;;;;;11.00;5.83;;;4.90;88.20;;;;;;5003355;28;20055;-79
2021/04/14 06:07:02;;;;;;;10.53;6.27;;;5.00;88.00;;;;;;5001003;28;20044;-80
2021/04/14 06:09:32;;;;;;;12.17;7.40;;;5.00;87.70;;;;;;5028820;28;20056;-79
2021/04/14 06:11:59;;;;;;;11.40;7.77;;;5.10;87.60;;;;;;5013170;28;20059;-80
2021/04/14 06:14:29;;;;;;;11.87;8.43;;;5.10;87.40;;;;;;5025295;28;20059;-79
2021/04/14 06:16:55;;;;;;;13.23;8.33;;;5.20;87.20;;;;;;4991911;28;20033;-81
2021/04/14 06:19:22;;;;;;;16.57;8.70;;;5.20;87.10;;;;;;5010199;28;20032;-79
2021/04/14 06:21:49;;;;;;;14.90;9.00;;;5.20;86.90;;;;;;5011900;28;20036;-80
2021/04/14 06:24:28;;;;;;;13.43;9.33;;;5.30;86.90;;;;;;5108984;27;800659;-80
2021/04/14 06:26:59;;;;;;;13.63;7.57;;;5.40;86.80;;;;;;5067464;28;20047;-79
2021/04/14 06:29:30;;;;;;;12.90;8.27;;;5.50;86.80;;;;;;5103360;28;20055;-79
2021/04/14 06:31:58;;;;;;;12.30;8.17;;;5.70;86.50;;;;;;5068715;28;20062;-79
2021/04/14 06:34:26;;;;;;;13.33;7.20;;;5.70;86.20;;;;;;5066714;28;20044;-80
2021/04/14 06:36:56;;;;;;;11.67;8.10;;;5.80;86.10;;;;;;5051268;28;20497;-79
2021/04/14 06:39:27;;;;;;;15.70;9.10;;;6.00;85.90;;;;;;5068266;28;20048;-80
2021/04/14 06:42:18;;;;;;;14.57;8.60;;;6.20;85.40;;;;;;5054981;28;20497;-80
2021/04/14 06:45:27;;;;;;;12.40;7.80;;;6.40;84.90;;;;;;5101297;28;20047;-80
2021/04/14 06:48:09;;;;;;;12.53;7.90;;;6.50;84.40;;;;;;5069399;28;20051;-80
2021/04/14 06:50:49;;;;;;;9.27;6.27;;;6.60;84.00;;;;;;5087803;28;20043;-80
2021/04/14 06:53:51;;;;;;;12.53;6.63;;;6.60;83.70;;;;;;5086489;28;20297;-80
2021/04/14 06:56:21;;;;;;;9.27;6.60;;;6.60;83.30;;;;;;5098143;28;20046;-81
2021/04/14 06:59:09;;;;;;;10.43;7.03;;;6.50;83.30;;;;;;5081848;28;20047;-77
2021/04/14 07:01:42;;;;;;;12.90;7.83;;;6.50;83.20;;;;;;5065268;28;20059;-80
2021/04/14 07:04:10;;;;;;;11.82;6.70;;;6.50;82.50;;;;;;5065232;28;20044;-79
2021/04/14 07:06:46;;;;;;;10.50;6.23;;;6.50;82.30;;;;;;5074969;28;20470;-79
2021/04/14 07:09:27;;;;;;;10.60;6.77;;;6.50;82.30;;;;;;5063147;28;20044;-80
2021/04/14 07:11:56;;;;;;;10.15;6.45;;;6.60;82.20;;;;;;5065147;28;20032;-80
2021/04/14 07:14:25;;;;;;;8.87;6.60;;;6.60;82.00;;;;;;5051324;28;20040;-79
2021/04/14 07:17:29;;;;;;;10.70;6.63;;;6.80;81.80;;;;;;5063715;28;20067;-79
2021/04/14 07:20:06;;;;;;;9.13;6.17;;;7.10;81.40;;;;;;5032405;28;20055;-80
2021/04/14 07:22:44;;;;;;;9.95;6.90;;;7.50;81.00;;;;;;5047988;28;20040;-79
2021/04/14 07:25:22;;;;;;;12.32;7.45;;;7.90;80.40;;;;;;5047504;28;20482;-80
2021/04/14 07:28:01;;;;;;;10.82;6.70;;;8.30;79.10;;;;;;5048125;28;20824;-79
2021/04/14 07:30:46;;;;;;;10.10;7.05;;;8.60;78.00;;;;;;5065549;28;20040;-80
2021/04/14 07:33:37;;;;;;;12.93;6.73;;;8.60;77.40;;;;;;5061104;28;20079;-77
2021/04/14 07:36:32;;;;;;;9.77;6.88;;;8.60;77.00;;;;;;5012153;28;20048;-77
2021/04/14 07:39:21;;;;;;;13.07;6.50;;;8.30;76.10;;;;;;5048025;28;20040;-77
2021/04/14 07:42:26;;;;;;;11.40;7.50;;;8.00;76.30;;;;;;5051339;28;20040;-79
2021/04/14 07:45:05;;;;;;;10.60;7.15;;;7.70;77.10;;;;;;5026188;28;20570;-79
2021/04/14 07:47:33;;;;;;;12.95;7.85;;;7.30;78.40;;;;;;5048558;28;20044;-80
2021/04/14 07:49:59;;;;;;;10.18;6.32;;;7.00;79.50;;;;;;5017705;28;20047;-79
2021/04/14 07:52:29;;;;;;;10.35;5.78;;;6.80;80.60;;;;;;5033304;28;20502;-79
2021/04/14 07:54:57;;;;;;;11.82;6.13;;;6.70;81.90;;;;;;5034019;28;20039;-79
2021/04/14 07:57:31;;;;;;;12.87;7.17;;;6.80;81.70;;;;;;5015593;28;20059;-79
2021/04/14 08:00:40;;;;;;;12.13;6.40;;;6.80;82.20;;;;;;5034448;28;20032;-78
2021/04/14 08:03:28;;;;;;;9.15;6.18;;;6.90;82.40;;;;;;5058678;28;20055;-79
2021/04/14 08:06:08;;;;;;;12.60;7.15;;;7.10;82.40;;;;;;5030620;28;20036;-79
2021/04/14 08:08:35;;;;;;;14.05;7.47;;;7.40;82.60;;;;;;5032755;28;20028;-79
2021/04/14 08:11:10;;;;;;;12.32;7.68;;;7.80;82.10;;;;;;5000257;28;20063;-79
2021/04/14 08:13:41;;;;;;;10.98;6.93;;;7.90;81.80;;;;;;5033382;28;20036;-79
2021/04/14 08:16:41;;;;;;;11.70;8.00;;;8.00;82.50;;;;;;5043856;28;20040;-79
2021/04/14 08:19:34;;;;;;;13.88;7.22;;;7.90;83.90;;;;;;5017394;28;20056;-79
2021/04/14 08:22:22;;;;;;;9.43;6.65;;;8.00;85.20;;;;;;5047683;28;20798;-79
2021/04/14 08:24:53;;;;;;;11.73;7.93;;;8.10;85.70;;;;;;5048266;28;20142;-78
2021/04/14 08:27:33;;;;;;;11.53;6.97;;;8.30;86.40;;;;;;5014223;28;20561;-79
2021/04/14 08:30:05;;;;;;;12.18;7.65;;;8.60;86.80;;;;;;5048264;28;20036;-79
2021/04/14 08:32:40;;;;;;;11.02;7.70;;;8.80;86.60;;;;;;5054628;28;20387;-79
2021/04/14 08:35:32;;;;;;;10.40;6.50;;;8.90;86.90;;;;;;5048121;28;20109;-79
2021/04/14 08:38:17;;;;;;;11.57;7.18;;;9.10;87.00;;;;;;5053969;28;20044;-80
2021/04/14 08:40:55;;;;;;;9.57;6.63;;;9.20;86.20;;;;;;5015029;28;20475;-77
2021/04/14 08:43:23;;;;;;;11.50;7.28;;;9.30;86.70;;;;;;5063056;28;20049;-80
2021/04/14 08:45:51;;;;;;;12.13;8.18;;;9.40;86.80;;;;;;5068083;28;20037;-79
2021/04/14 08:48:28;;;;;;;9.70;6.97;;;9.50;86.50;;;;;;5031374;28;20048;-80
2021/04/14 08:51:01;;;;;;;13.30;8.50;;;9.70;85.70;;;;;;5065955;28;20052;-79
2021/04/14 08:53:37;;;;;;;11.30;7.68;;;9.80;85.10;;;;;;5048488;28;20052;-79
2021/04/14 08:56:04;;;;;;;9.70;7.00;;;10.10;84.60;;;;;;5030729;28;20048;-80
2021/04/14 08:58:31;;;;;;;13.77;8.07;;;10.30;84.40;;;;;;5047158;28;20040;-79
2021/04/14 09:00:59;;;;;;;10.65;7.18;;;10.70;84.50;;;;;;5066195;28;20055;-80
2021/04/14 09:03:34;;;;;;;9.10;7.35;;;11.00;84.30;;;;;;5015784;28;20037;-80
2021/04/14 09:06:00;;;;;;;13.07;8.48;;;11.40;84.00;;;;;;5063587;28;20044;-81
2021/04/14 09:08:31;;;;;;;14.00;7.65;;;11.80;81.80;;;;;;5048007;28;20094;-80
2021/04/14 09:11:01;;;;;;;12.43;8.63;;;12.10;80.70;;;;;;5015568;28;20058;-80
2021/04/14 09:13:32;;;;;;;10.75;7.80;;;12.20;79.50;;;;;;5032311;28;20040;-81
2021/04/14 09:16:03;;;;;;;12.25;8.07;;;12.10;78.80;;;;;;5036458;28;20043;-80
2021/04/14 09:18:38;;;;;;;10.68;7.03;;;12.00;78.90;;;;;;5047098;28;20049;-79
2021/04/14 09:21:25;;;;;;;12.60;8.35;;;11.90;79.20;;;;;;5047641;28;20048;-80
2021/04/14 09:24:03;;;;;;;12.35;8.27;;;11.80;78.70;;;;;;5005131;28;20061;-80
2021/04/14 09:26:37;;;;;;;9.93;7.68;;;11.60;77.80;;;;;;5023226;28;20415;-79
2021/04/14 09:29:23;;;;;;;11.45;8.48;;;11.40;77.90;;;;;;5025471;28;20060;-82
2021/04/14 09:31:52;;;;;;;12.95;8.63;;;11.20;78.60;;;;;;5004016;28;20049;-80
2021/04/14 09:34:30;;;;;;;11.75;9.32;;;10.90;78.90;;;;;;4996977;28;20041;-81
2021/04/14 09:37:12;;;;;;;11.98;9.05;;;10.70;78.60;;;;;;5005588;28;20033;-80
2021/04/14 09:39:42;;;;;;;14.52;9.88;;;10.50;79.30;;;;;;5021346;28;20049;-79
2021/04/14 09:42:24;;;;;;;12.88;9.57;;;10.30;79.10;;;;;;5027523;28;20508;-79
2021/04/14 09:45:11;;;;;;;15.43;10.65;;;10.10;80.10;;;;;;5004502;28;20039;-80
2021/04/14 09:47:38;;;;;;;;;;;9.80;80.40;;;;;;5032977;28;20052;-80
2021/04/14 09:50:36;;;;;;;16.40;10.07;;;9.60;81.10;;;;;;4998535;28;20364;-80
2021/04/14 09:53:15;;;;;;;13.82;10.27;;;9.40;81.00;;;;;;5009326;28;20046;-76
2021/04/14 09:56:06;;;;;;;14.93;9.98;;;9.20;81.80;;;;;;5020168;28;20037;-77
2021/04/14 09:58:43;;;;;;;18.60;9.93;;;9.10;82.60;;;;;;5021816;28;20515;-76
2021/04/14 10:01:19;;;;;;;14.18;10.57;;;8.90;82.50;;;;;;5006944;28;20033;-77
2021/04/14 10:03:47;;;;;;;13.55;9.65;;;8.60;82.70;;;;;;4994728;28;20030;-76
2021/04/14 10:06:20;;;;;;;15.35;10.13;;;8.30;83.30;;;;;;4991371;28;20041;-77
2021/04/14 10:08:47;;;;;;;17.85;10.90;;;8.10;84.40;;;;;;5023027;28;20048;-78
2021/04/14 10:11:28;;;;;;;16.20;9.55;;;7.90;85.20;;;;;;4986990;28;20037;-77
2021/04/14 10:13:56;;;;;;;12.63;9.80;;;7.80;86.30;;;;;;5003375;28;20045;-76
2021/04/14 10:16:24;;;;;;;13.38;7.45;;;7.60;87.10;;;;;;5020287;28;20048;-76
2021/04/14 10:19:06;;;;;;;12.35;9.45;;;7.40;87.70;;;;;;5019976;28;20041;-76
2021/04/14 10:21:35;;;;;;;13.70;10.23;;;7.20;88.50;;;;;;5022209;28;20041;-76
2021/04/14 10:24:08;;;;;;;15.07;9.73;;;7.00;89.50;;;;;;5014437;28;20057;-76
2021/04/14 10:26:41;;;;;;;12.80;9.82;;;6.90;90.20;;;;;;5023723;28;20036;-79
2021/04/14 10:29:09;;;;;;;13.80;9.90;;;6.80;90.60;;;;;;5040195;28;20033;-76
2021/04/14 10:31:37;;;;;;;12.05;8.88;;;6.80;90.90;;;;;;5029190;28;20037;-76
2021/04/14 10:34:24;;;;;;;12.40;6.47;;;6.80;91.20;;;;;;5026253;28;20041;-76
2021/04/14 10:36:51;;;;;;;11.43;8.93;;;6.90;91.50;;;;;;5041302;28;20049;-76
2021/04/14 10:39:25;;;;;;;15.68;10.80;;;7.00;91.70;;;;;;5044551;28;20055;-76
2021/04/14 10:41:54;;;;;;;13.40;10.43;;;7.10;91.90;;;;;;5025942;28;20982;-76
2021/04/14 10:44:37;;;;;;;16.63;10.32;;;7.30;91.90;;;;;;5011283;28;20029;-75
2021/04/14 10:47:28;;;;;;;12.50;9.98;;;7.50;92.00;;;;;;5039781;28;20049;-74
2021/04/14 10:50:25;;;;;;;14.15;10.43;;;7.80;92.40;;;;;;5023299;28;20506;-75
2021/04/14 10:52:59;;;;;;;15.25;10.68;;;8.00;92.00;;;;;;5023985;28;20064;-77
2021/04/14 10:55:29;;;;;;;12.85;10.23;;;8.20;92.20;;;;;;5022832;28;20037;-78
2021/04/14 10:58:00;;;;;;;12.43;9.88;;;8.50;92.50;;;;;;5038508;28;20045;-76
2021/04/14 11:00:34;;;;;;;11.35;9.40;;;9.10;92.90;;;;;;5042350;28;20056;-77
2021/04/14 11:03:09;;;;;;;12.80;9.63;;;9.50;92.40;;;;;;5044426;28;20064;-77
2021/04/14 11:05:38;;;;;;;11.73;9.27;;;10.00;92.10;;;;;;5023489;28;20107;-74
2021/04/14 11:08:08;;;;;;;10.63;8.27;;;10.30;91.60;;;;;;5045594;28;20052;-75
2021/04/14 11:10:37;;;;;;;13.77;8.93;;;10.60;91.20;;;;;;5033377;28;20041;-75
2021/04/14 11:13:09;;;;;;;12.60;8.07;;;10.80;90.50;;;;;;5045746;28;20033;-75
2021/04/14 11:15:41;;;;;;;10.32;8.15;;;10.80;90.00;;;;;;5043426;28;20045;-75
2021/04/14 11:18:11;;;;;;;12.10;8.63;;;10.80;88.40;;;;;;5028975;28;20049;-74
2021/04/14 11:20:49;;;;;;;9.75;7.57;;;10.80;88.50;;;;;;5049738;28;20068;-74
2021/04/14 11:23:20;;;;;;;9.57;8.57;;;10.90;88.80;;;;;;5046951;28;20063;-74
2021/04/14 11:25:47;;;;;;;11.60;8.52;;;11.00;88.30;;;;;;5030740;28;20055;-74
2021/04/14 11:28:17;;;;;;;10.32;8.57;;;11.30;88.20;;;;;;5064712;28;20383;-74
2021/04/14 11:30:56;;;;;;;9.52;7.53;;;11.70;87.60;;;;;;5048865;28;20601;-76
2021/04/14 11:33:48;;;;;;;13.05;8.63;;;12.20;86.20;;;;;;5027819;28;20091;-74
2021/04/14 11:36:20;;;;;;;11.02;8.25;;;13.00;85.30;;;;;;5022687;28;20048;-75
2021/04/14 11:39:11;;;;;;;8.40;7.15;;;13.70;83.30;;;;;;5027106;28;20029;-75
2021/04/14 11:41:40;;;;;;;9.70;7.88;;;14.20;80.70;;;;;;5046796;28;20059;-74
2021/04/14 11:44:23;;;;;;;9.60;7.38;;;14.60;78.30;;;;;;5047631;28;20055;-74
2021/04/14 11:46:59;;;;;;;10.38;6.82;;;14.50;75.00;;;;;;5041112;28;20041;-76
2021/04/14 11:49:31;;;;;;;7.97;6.78;;;14.00;75.90;;;;;;5064228;28;20055;-76
2021/04/14 11:52:01;;;;;;;9.38;6.72;;;13.60;76.10;;;;;;5064167;28;20048;-76
2021/04/14 11:54:35;;;;;;;7.68;6.82;;;13.30;76.70;;;;;;5030203;28;20066;-76
2021/04/14 11:57:01;;;;;;;9.18;7.32;;;13.00;76.40;;;;;;5043068;28;20472;-76
2021/04/14 11:59:31;;;;;;;9.20;5.95;;;12.70;76.80;;;;;;5036631;28;20059;-76
2021/04/14 12:02:23;;;;;;;9.13;6.00;;;12.50;75.70;;;;;;5029586;28;20033;-75
2021/04/14 12:04:59;;;;;;;8.25;6.25;;;12.20;74.00;;;;;;5043574;28;20044;-76
2021/04/14 12:07:26;;;;;;;9.48;6.07;;;11.90;75.30;;;;;;5047455;28;20060;-76
2021/04/14 12:09:52;;;;;;;9.77;6.03;;;11.70;76.10;;;;;;5049912;28;20060;-76
2021/04/14 12:12:20;;;;;;;7.70;5.50;;;11.70;75.20;;;;;;5046083;28;20064;-76
2021/04/14 12:14:47;;;;;;;8.48;5.65;;;11.60;75.10;;;;;;5027530;28;20044;-76
2021/04/14 12:17:20;;;;;;;9.48;6.63;;;11.60;75.10;;;;;;5043537;28;20399;-76
2021/04/14 12:19:55;;;;;;;9.10;5.90;;;11.50;76.10;;;;;;5048423;28;20067;-76
2021/04/14 12:22:23;;;;;;;7.55;5.38;;;11.60;75.30;;;;;;5017509;28;20068;-76
2021/04/14 12:24:49;;;;;;;6.78;5.55;;;11.60;75.80;;;;;;5047192;28;20414;-75
2021/04/14 12:27:16;;;;;;;8.07;5.30;;;11.70;74.30;;;;;;5062209;28;20048;-75
2021/04/14 12:29:52;;;;;;;9.40;5.97;;;11.60;73.90;;;;;;5034861;28;20083;-76
2021/04/14 12:32:19;;;;;;;5.72;3.35;;;11.70;74.70;;;;;;5063096;28;20037;-75
2021/04/14 12:34:45;;;;;;;4.80;3.00;;;11.80;72.60;;;;;;5009291;28;20048;-76
2021/04/14 12:37:13;;;;;;;5.13;2.60;;;11.90;71.10;;;;;;5026269;28;20044;-76
2021/04/14 12:39:45;;;;;;;5.72;2.92;;;12.30;69.60;;;;;;5003656;28;20044;-76
2021/04/14 12:42:12;;;;;;;1.83;1.15;;;13.30;67.00;;;;;;5030180;28;20059;-76
2021/04/14 12:44:55;;;;;;;;;;;14.40;64.50;;;;;;5047732;28;20068;-76
2021/04/14 12:47:25;;;;;;;3.55;1.20;;;15.40;63.70;;;;;;5041558;28;19928;-76
2021/04/14 12:49:53;;;;;;;4.70;1.10;;;15.60;61.30;;;;;;5064559;28;20040;-74
2021/04/14 12:52:30;;;;;;;2.70;0.80;;;16.00;58.20;;;;;;5044863;28;20059;-74
2021/04/14 12:54:58;;;;;;;3.08;1.30;;;16.30;57.60;;;;;;5059460;28;20040;-74
2021/04/14 12:57:28;;;;;;;5.57;1.30;;;15.80;57.20;;;;;;5036824;28;20505;-74
2021/04/14 13:00:08;;;;;;;4.35;1.30;;;15.10;56.90;;;;;;5028925;28;20056;-74
2021/04/14 13:02:55;;;;;;;5.13;1.40;;;14.30;57.40;;;;;;5029093;28;20410;-74
2021/04/14 13:05:26;;;;;;;4.03;1.63;;;13.80;59.00;;;;;;5060751;28;20402;-74
2021/04/14 13:08:03;;;;;;;5.43;2.33;;;13.50;60.20;;;;;;5062481;28;20517;-74
2021/04/14 13:10:36;;;;;;;4.70;2.30;;;13.10;60.30;;;;;;5044413;28;20045;-74
2021/04/14 13:13:03;;;;;;;4.60;2.30;;;12.90;60.10;;;;;;5044085;28;20040;-74
2021/04/14 13:16:19;;;;;;;5.07;2.17;;;12.80;62.10;;;;;;5043872;28;20118;-74